createdAt,value
2023-05-02T00:00:17.646Z,100.00
2023-05-02T00:03:08.559Z,100.00
2023-05-02T00:05:40.163Z,100.00
2023-05-02T00:08:10.513Z,100.00
2023-05-02T00:10:40.173Z,100.00
2023-05-02T00:13:10.929Z,100.00
2023-05-02T00:15:41.289Z,100.00
2023-05-02T00:18:12.136Z,100.00
2023-05-02T00:20:42.943Z,100.00
2023-05-02T00:23:13.274Z,100.00
2023-05-02T00:25:46.260Z,100.00
2023-05-02T00:28:16.380Z,100.00
2023-05-02T00:30:47.385Z,100.00
2023-05-02T00:33:19.687Z,100.00
2023-05-02T00:35:50.824Z,100.00
2023-05-02T00:38:20.943Z,100.00
2023-05-02T00:40:53.030Z,100.00
2023-05-02T00:43:23.223Z,100.00
2023-05-02T00:45:53.170Z,100.00
2023-05-02T00:48:25.519Z,100.00
2023-05-02T00:50:56.857Z,100.00
2023-05-02T00:53:27.177Z,100.00
2023-05-02T00:55:59.539Z,100.00
2023-05-02T00:58:30.280Z,100.00
2023-05-02T01:01:08.685Z,100.00
2023-05-02T01:03:47.429Z,100.00
2023-05-02T01:06:29.084Z,100.00
2023-05-02T01:09:13.353Z,100.00
2023-05-02T01:11:49.112Z,100.00
2023-05-02T01:14:21.777Z,100.00
2023-05-02T01:16:53.541Z,100.00
2023-05-02T01:19:31.654Z,100.00
2023-05-02T01:22:05.221Z,100.00
2023-05-02T01:24:41.266Z,100.00
2023-05-02T01:27:25.131Z,100.00
2023-05-02T01:29:58.599Z,100.00
2023-05-02T01:32:32.834Z,100.00
2023-05-02T01:35:05.318Z,100.00
2023-05-02T01:37:37.496Z,100.00
2023-05-02T01:40:12.243Z,100.00
2023-05-02T01:42:44.277Z,100.00
2023-05-02T01:45:17.057Z,100.00
2023-05-02T01:47:48.085Z,100.00
2023-05-02T01:50:20.558Z,100.00
2023-05-02T01:52:54.190Z,100.00
2023-05-02T01:55:25.905Z,100.00
2023-05-02T01:57:57.207Z,100.00
2023-05-02T02:00:29.720Z,100.00
2023-05-02T02:03:02.074Z,100.00
2023-05-02T02:05:34.030Z,100.00
2023-05-02T02:08:06.783Z,100.00
2023-05-02T02:10:41.438Z,100.00
2023-05-02T02:13:17.920Z,100.00
2023-05-02T02:15:51.053Z,100.00
2023-05-02T02:18:26.147Z,100.00
2023-05-02T02:21:00.287Z,100.00
2023-05-02T02:23:33.885Z,100.00
2023-05-02T02:26:07.841Z,100.00
2023-05-02T02:28:38.419Z,100.00
2023-05-02T02:31:09.168Z,100.00
2023-05-02T02:33:40.509Z,100.00
2023-05-02T02:36:19.426Z,100.00
2023-05-02T02:38:57.677Z,100.00
2023-05-02T02:41:40.548Z,100.00
2023-05-02T02:44:27.664Z,100.00
2023-05-02T02:47:06.588Z,100.00
2023-05-02T02:49:50.938Z,100.00
2023-05-02T02:52:28.903Z,100.00
2023-05-02T02:55:07.048Z,100.00
2023-05-02T02:57:47.612Z,100.00
2023-05-02T03:00:22.212Z,100.00
2023-05-02T03:02:56.544Z,100.00
2023-05-02T03:05:29.629Z,100.00
2023-05-02T03:08:01.597Z,100.00
2023-05-02T03:10:33.185Z,100.00
2023-05-02T03:13:04.084Z,100.00
2023-05-02T03:16:11.925Z,100.00
2023-05-02T03:18:43.850Z,100.00
2023-05-02T03:21:14.408Z,100.00
2023-05-02T03:23:47.367Z,100.00
2023-05-02T03:26:19.323Z,100.00
2023-05-02T03:28:49.852Z,100.00
2023-05-02T03:31:21.032Z,100.00
2023-05-02T03:33:52.748Z,100.00
2023-05-02T03:36:23.709Z,100.00
2023-05-02T03:38:56.267Z,100.00
2023-05-02T03:41:27.821Z,100.00
2023-05-02T03:44:02.848Z,100.00
2023-05-02T03:46:33.884Z,100.00
2023-05-02T03:49:05.537Z,100.00
2023-05-02T03:51:36.478Z,100.00
2023-05-02T03:54:09.460Z,100.00
2023-05-02T03:56:42.909Z,100.00
2023-05-02T03:59:19.124Z,100.00
2023-05-02T04:01:51.326Z,100.00
2023-05-02T04:04:24.753Z,100.00
2023-05-02T04:06:57.255Z,100.00
2023-05-02T04:09:27.788Z,100.00
2023-05-02T04:12:02.815Z,100.00
2023-05-02T04:14:34.177Z,100.00
2023-05-02T04:17:06.321Z,100.00
2023-05-02T04:19:41.984Z,100.00
2023-05-02T04:22:12.730Z,100.00
2023-05-02T04:24:47.952Z,100.00
2023-05-02T04:27:19.096Z,100.00
2023-05-02T04:29:50.648Z,100.00
2023-05-02T04:32:22.602Z,100.00
2023-05-02T04:34:53.742Z,100.00
2023-05-02T04:37:25.914Z,100.00
2023-05-02T04:39:56.231Z,100.00
2023-05-02T04:42:29.428Z,100.00
2023-05-02T04:45:15.102Z,100.00
2023-05-02T04:47:47.745Z,100.00
2023-05-02T04:50:20.051Z,100.00
2023-05-02T04:52:50.377Z,100.00
2023-05-02T04:55:22.950Z,100.00
2023-05-02T04:57:54.504Z,100.00
2023-05-02T05:00:25.848Z,100.00
2023-05-02T05:02:59.275Z,100.00
2023-05-02T05:05:31.639Z,100.00
2023-05-02T05:08:02.963Z,100.00
2023-05-02T05:10:36.968Z,100.00
2023-05-02T05:13:08.121Z,100.00
2023-05-02T05:15:38.639Z,100.00
2023-05-02T05:18:10.015Z,100.00
2023-05-02T05:20:40.919Z,100.00
2023-05-02T05:23:12.477Z,100.00
2023-05-02T05:25:43.544Z,100.00
2023-05-02T05:28:17.940Z,100.00
2023-05-02T05:30:48.776Z,100.00
2023-05-02T05:33:24.982Z,100.00
2023-05-02T05:35:56.796Z,100.00
2023-05-02T05:38:27.725Z,100.00
2023-05-02T05:40:58.464Z,100.00
2023-05-02T05:43:30.418Z,100.00
2023-05-02T05:46:01.558Z,100.00
2023-05-02T05:48:33.336Z,100.00
2023-05-02T05:51:08.328Z,100.00
2023-05-02T05:53:38.481Z,100.00
2023-05-02T05:56:11.667Z,100.00
2023-05-02T05:58:44.290Z,100.00
2023-05-02T06:01:16.607Z,100.00
2023-05-02T06:03:47.616Z,100.00
2023-05-02T06:06:19.513Z,100.00
2023-05-02T06:08:50.421Z,100.00
2023-05-02T06:11:20.563Z,100.00
2023-05-02T06:13:51.714Z,100.00
2023-05-02T06:16:22.776Z,100.00
2023-05-02T06:18:54.808Z,100.00
2023-05-02T06:21:24.719Z,100.00
2023-05-02T06:23:55.249Z,100.00
2023-05-02T06:26:25.575Z,100.00
2023-05-02T06:28:56.921Z,100.00
2023-05-02T06:31:27.077Z,100.00
2023-05-02T06:33:57.761Z,100.00
2023-05-02T06:36:28.499Z,100.00
2023-05-02T06:38:59.037Z,100.00
2023-05-02T06:41:29.356Z,100.00
2023-05-02T06:44:00.102Z,100.00
2023-05-02T06:46:31.262Z,100.00
2023-05-02T06:49:01.752Z,100.00
2023-05-02T06:51:32.482Z,100.00
2023-05-02T06:54:03.212Z,100.00
2023-05-02T06:56:33.957Z,100.00
2023-05-02T06:59:04.891Z,100.00
2023-05-02T07:01:35.752Z,100.00
2023-05-02T07:04:06.857Z,100.00
2023-05-02T07:06:37.741Z,100.00
2023-05-02T07:09:08.438Z,100.00
2023-05-02T07:11:39.168Z,100.00
2023-05-02T07:14:09.900Z,100.00
2023-05-02T07:16:40.731Z,100.00
2023-05-02T07:19:11.570Z,100.00
2023-05-02T07:21:42.294Z,100.00
2023-05-02T07:24:13.036Z,100.00
2023-05-02T07:26:43.766Z,100.00
2023-05-02T07:29:14.920Z,100.00
2023-05-02T07:31:45.548Z,100.00
2023-05-02T07:34:15.756Z,100.00
2023-05-02T07:36:46.690Z,100.00
2023-05-02T07:39:17.430Z,100.00
2023-05-02T07:41:48.160Z,100.00
2023-05-02T07:44:18.695Z,100.00
2023-05-02T07:46:49.058Z,100.00
2023-05-02T07:49:19.745Z,100.00
2023-05-02T07:51:50.282Z,100.00
2023-05-02T07:54:22.071Z,100.00
2023-05-02T07:56:52.568Z,100.00
2023-05-02T07:59:22.678Z,100.00
2023-05-02T08:01:53.212Z,100.00
2023-05-02T08:04:24.441Z,100.00
2023-05-02T08:06:55.608Z,100.00
2023-05-02T08:09:26.646Z,100.00
2023-05-02T08:11:57.371Z,100.00
2023-05-02T08:14:28.105Z,100.00
2023-05-02T08:16:58.835Z,100.00
2023-05-02T08:19:29.570Z,100.00
2023-05-02T08:22:00.953Z,100.00
2023-05-02T08:24:31.477Z,100.00
2023-05-02T08:27:02.974Z,100.00
2023-05-02T08:29:33.315Z,100.00
2023-05-02T08:32:04.309Z,98.41
2023-05-02T08:34:35.402Z,95.82
2023-05-02T08:37:10.238Z,95.17
2023-05-02T08:39:40.958Z,94.18
2023-05-02T08:42:11.896Z,93.44
2023-05-02T08:44:42.427Z,91.94
2023-05-02T08:47:15.566Z,91.16
2023-05-02T08:49:47.594Z,89.72
2023-05-02T08:52:20.153Z,88.68
2023-05-02T08:54:51.066Z,88.42
2023-05-02T08:57:21.617Z,86.16
2023-05-02T08:59:52.553Z,85.23
2023-05-02T09:02:37.252Z,84.06
2023-05-02T09:05:11.866Z,83.22
2023-05-02T09:07:47.465Z,80.83
2023-05-02T09:10:18.014Z,80.47
2023-05-02T09:12:48.334Z,80.21
2023-05-02T09:15:20.781Z,80.16
2023-05-02T09:17:51.695Z,77.13
2023-05-02T09:20:23.607Z,76.01
2023-05-02T09:22:54.043Z,74.81
2023-05-02T09:25:24.454Z,75.02
2023-05-02T09:27:56.431Z,73.81
2023-05-02T09:30:28.405Z,73.68
2023-05-02T09:32:58.911Z,74.33
2023-05-02T09:35:29.231Z,71.62
2023-05-02T09:37:59.763Z,71.17
2023-05-02T09:40:30.211Z,69.63
2023-05-02T09:43:00.158Z,69.03
2023-05-02T09:45:30.724Z,66.72
2023-05-02T09:48:04.565Z,67.02
2023-05-02T09:50:36.646Z,66.75
2023-05-02T09:53:09.005Z,64.61
2023-05-02T09:55:39.231Z,62.58
2023-05-02T09:58:22.449Z,61.55
2023-05-02T10:00:53.044Z,60.89
2023-05-02T10:03:26.297Z,61.21
2023-05-02T10:05:57.267Z,60.57
2023-05-02T10:08:28.375Z,58.83
2023-05-02T10:11:00.274Z,58.26
2023-05-02T10:13:33.934Z,57.64
2023-05-02T10:16:06.793Z,56.65
2023-05-02T10:18:42.922Z,55.72
2023-05-02T10:21:17.039Z,55.48
2023-05-02T10:23:48.146Z,55.02
2023-05-02T10:26:20.753Z,54.61
2023-05-02T10:28:51.032Z,54.61
2023-05-02T10:31:22.173Z,54.58
2023-05-02T10:33:52.961Z,55.57
2023-05-02T10:36:24.530Z,54.79
2023-05-02T10:38:55.758Z,54.76
2023-05-02T10:41:26.336Z,52.94
2023-05-02T10:43:57.887Z,54.25
2023-05-02T10:46:36.288Z,52.69
2023-05-02T10:49:08.906Z,52.65
2023-05-02T10:51:40.651Z,52.32
2023-05-02T10:54:24.920Z,50.95
2023-05-02T10:57:07.042Z,50.67
2023-05-02T10:59:38.975Z,51.06
2023-05-02T11:02:48.932Z,51.06
2023-05-02T11:05:19.767Z,50.58
2023-05-02T11:07:50.376Z,49.71
2023-05-02T11:10:28.110Z,49.79
2023-05-02T11:13:00.643Z,49.54
2023-05-02T11:15:55.852Z,49.47
2023-05-02T11:18:25.838Z,48.14
2023-05-02T11:21:28.058Z,48.23
2023-05-02T11:24:39.959Z,46.82
2023-05-02T11:27:43.678Z,46.73
2023-05-02T11:30:14.898Z,46.82
2023-05-02T11:33:19.285Z,46.61
2023-05-02T11:35:50.932Z,46.40
2023-05-02T11:38:23.928Z,46.09
2023-05-02T11:40:56.100Z,46.40
2023-05-02T11:43:30.655Z,46.31
2023-05-02T11:46:04.899Z,45.92
2023-05-02T11:48:35.919Z,46.67
2023-05-02T11:51:07.457Z,46.44
2023-05-02T11:53:42.040Z,46.41
2023-05-02T11:56:11.826Z,46.15
2023-05-02T11:58:43.876Z,45.38
2023-05-02T12:01:15.120Z,44.84
2023-05-02T12:03:44.585Z,44.37
2023-05-02T12:06:18.189Z,45.77
2023-05-02T12:08:48.945Z,45.87
2023-05-02T12:11:19.206Z,45.99
2023-05-02T12:13:50.943Z,45.98
2023-05-02T12:16:22.087Z,46.89
2023-05-02T12:18:53.579Z,45.83
2023-05-02T12:21:23.767Z,45.51
2023-05-02T12:23:54.099Z,45.55
2023-05-02T12:26:28.896Z,44.91
2023-05-02T12:29:00.390Z,44.67
2023-05-02T12:31:31.715Z,44.51
2023-05-02T12:34:01.742Z,43.98
2023-05-02T12:36:33.898Z,44.43
2023-05-02T12:39:04.201Z,44.22
2023-05-02T12:41:37.485Z,44.40
2023-05-02T12:44:08.356Z,44.52
2023-05-02T12:46:39.120Z,44.31
2023-05-02T12:49:11.639Z,43.94
2023-05-02T12:51:43.390Z,43.80
2023-05-02T12:54:21.112Z,44.15
2023-05-02T12:56:51.989Z,43.80
2023-05-02T12:59:33.016Z,44.17
2023-05-02T13:02:03.269Z,44.14
2023-05-02T13:04:36.950Z,43.89
2023-05-02T13:07:07.508Z,43.35
2023-05-02T13:09:38.353Z,43.87
2023-05-02T13:12:08.715Z,43.34
2023-05-02T13:14:38.689Z,43.67
2023-05-02T13:17:08.711Z,43.96
2023-05-02T13:19:44.452Z,43.65
2023-05-02T13:22:18.599Z,43.38
2023-05-02T13:24:49.344Z,43.40
2023-05-02T13:27:19.863Z,43.40
2023-05-02T13:29:50.353Z,43.36
2023-05-02T13:32:21.739Z,42.64
2023-05-02T13:34:52.061Z,42.95
2023-05-02T13:37:21.907Z,42.62
2023-05-02T13:39:52.302Z,42.67
2023-05-02T13:42:21.930Z,43.10
2023-05-02T13:44:52.059Z,42.64
2023-05-02T13:47:22.443Z,42.17
2023-05-02T13:49:53.201Z,42.37
2023-05-02T13:52:24.735Z,41.95
2023-05-02T13:54:55.671Z,42.02
2023-05-02T13:57:25.992Z,42.23
2023-05-02T13:59:56.047Z,41.95
2023-05-02T14:02:26.495Z,41.90
2023-05-02T14:04:57.200Z,42.19
2023-05-02T14:07:27.099Z,41.49
2023-05-02T14:09:56.714Z,41.20
2023-05-02T14:12:27.933Z,41.45
2023-05-02T14:14:57.554Z,41.08
2023-05-02T14:17:27.495Z,41.26
2023-05-02T14:19:59.220Z,41.70
2023-05-02T14:22:30.064Z,41.05
2023-05-02T14:25:00.406Z,41.15
2023-05-02T14:27:31.796Z,40.71
2023-05-02T14:30:02.634Z,41.16
2023-05-02T14:32:33.626Z,41.55
2023-05-02T14:35:04.533Z,41.94
2023-05-02T14:37:35.071Z,41.44
2023-05-02T14:40:08.617Z,41.26
2023-05-02T14:42:38.728Z,41.36
2023-05-02T14:45:12.349Z,41.44
2023-05-02T14:47:43.605Z,41.90
2023-05-02T14:50:13.268Z,42.21
2023-05-02T14:52:45.721Z,41.86
2023-05-02T14:55:16.976Z,42.22
2023-05-02T14:57:47.764Z,42.46
2023-05-02T15:00:19.716Z,41.93
2023-05-02T15:02:49.555Z,41.72
2023-05-02T15:05:20.137Z,41.32
2023-05-02T15:07:50.376Z,41.55
2023-05-02T15:10:20.726Z,41.22
2023-05-02T15:12:51.038Z,41.47
2023-05-02T15:15:24.598Z,41.12
2023-05-02T15:17:55.421Z,41.34
2023-05-02T15:20:25.719Z,41.42
2023-05-02T15:22:58.202Z,41.42
2023-05-02T15:25:29.025Z,41.45
2023-05-02T15:27:58.939Z,41.68
2023-05-02T15:30:29.673Z,41.47
2023-05-02T15:33:00.536Z,41.62
2023-05-02T15:35:30.872Z,41.54
2023-05-02T15:38:01.047Z,41.41
2023-05-02T15:40:30.980Z,41.37
2023-05-02T15:43:01.474Z,41.72
2023-05-02T15:45:31.473Z,41.53
2023-05-02T15:48:01.979Z,41.58
2023-05-02T15:50:32.457Z,41.63
2023-05-02T15:53:02.380Z,41.70
2023-05-02T15:55:32.491Z,41.83
2023-05-02T15:58:03.637Z,42.10
2023-05-02T16:00:32.521Z,42.18
2023-05-02T16:03:04.178Z,42.32
2023-05-02T16:05:34.477Z,42.59
2023-05-02T16:08:05.953Z,43.01
2023-05-02T16:10:35.798Z,42.90
2023-05-02T16:13:05.823Z,42.73
2023-05-02T16:15:36.096Z,43.40
2023-05-02T16:18:07.153Z,43.23
2023-05-02T16:20:38.258Z,43.42
2023-05-02T16:23:09.524Z,43.20
2023-05-02T16:25:38.427Z,42.95
2023-05-02T16:28:08.953Z,43.78
2023-05-02T16:30:39.496Z,44.67
2023-05-02T16:33:10.894Z,45.85
2023-05-02T16:35:40.841Z,46.57
2023-05-02T16:38:11.437Z,47.32
2023-05-02T16:40:42.141Z,48.30
2023-05-02T16:43:12.292Z,49.38
2023-05-02T16:45:43.625Z,50.98
2023-05-02T16:48:14.724Z,51.98
2023-05-02T16:50:45.952Z,52.34
2023-05-02T16:53:16.508Z,53.57
2023-05-02T16:55:46.445Z,55.72
2023-05-02T16:58:17.539Z,55.13
2023-05-02T17:00:48.745Z,54.83
2023-05-02T17:03:19.012Z,54.91
2023-05-02T17:05:49.493Z,55.10
2023-05-02T17:08:20.466Z,55.58
2023-05-02T17:10:51.551Z,54.97
2023-05-02T17:13:21.553Z,55.75
2023-05-02T17:15:53.281Z,56.21
2023-05-02T17:18:23.836Z,56.90
2023-05-02T17:20:55.172Z,56.32
2023-05-02T17:23:25.213Z,56.99
2023-05-02T17:25:55.386Z,57.58
2023-05-02T17:28:25.410Z,57.97
2023-05-02T17:30:57.500Z,58.34
2023-05-02T17:33:27.810Z,58.96
2023-05-02T17:35:58.035Z,58.74
2023-05-02T17:38:28.143Z,58.66
2023-05-02T17:40:59.367Z,58.65
2023-05-02T17:43:29.527Z,58.42
2023-05-02T17:46:00.076Z,58.71
2023-05-02T17:48:30.523Z,59.01
2023-05-02T17:51:03.440Z,58.71
2023-05-02T17:53:34.855Z,58.55
2023-05-02T17:56:06.435Z,58.17
2023-05-02T17:58:37.173Z,57.81
2023-05-02T18:01:11.212Z,58.34
2023-05-02T18:03:42.122Z,58.29
2023-05-02T18:06:18.257Z,58.38
2023-05-02T18:08:47.824Z,57.94
2023-05-02T18:11:18.936Z,57.83
2023-05-02T18:13:49.144Z,58.27
2023-05-02T18:16:19.898Z,58.18
2023-05-02T18:18:50.394Z,59.04
2023-05-02T18:21:27.817Z,58.11
2023-05-02T18:24:01.025Z,59.18
2023-05-02T18:26:31.202Z,58.77
2023-05-02T18:29:01.546Z,59.17
2023-05-02T18:31:32.005Z,59.12
2023-05-02T18:34:02.100Z,59.74
2023-05-02T18:36:34.338Z,59.43
2023-05-02T18:39:04.865Z,60.12
2023-05-02T18:41:34.746Z,60.22
2023-05-02T18:44:07.521Z,61.53
2023-05-02T18:46:57.749Z,60.35
2023-05-02T18:49:28.075Z,61.47
2023-05-02T18:51:58.591Z,61.43
2023-05-02T18:54:30.210Z,62.61
2023-05-02T18:56:59.882Z,63.82
2023-05-02T18:59:31.204Z,63.97
2023-05-02T19:02:01.595Z,63.22
2023-05-02T19:04:33.084Z,64.05
2023-05-02T19:07:04.032Z,64.34
2023-05-02T19:09:34.420Z,64.75
2023-05-02T19:12:05.692Z,65.53
2023-05-02T19:14:38.994Z,65.47
2023-05-02T19:17:10.435Z,66.43
2023-05-02T19:19:41.737Z,66.23
2023-05-02T19:22:16.031Z,67.65
2023-05-02T19:24:48.748Z,67.72
2023-05-02T19:27:18.551Z,67.80
2023-05-02T19:29:48.320Z,68.43
2023-05-02T19:32:21.091Z,69.54
2023-05-02T19:34:51.707Z,69.54
2023-05-02T19:37:21.266Z,69.87
2023-05-02T19:39:53.102Z,70.68
2023-05-02T19:42:23.290Z,70.95
2023-05-02T19:44:53.738Z,72.02
2023-05-02T19:47:23.791Z,72.18
2023-05-02T19:49:56.153Z,72.95
2023-05-02T19:52:28.806Z,73.54
2023-05-02T19:54:59.450Z,74.40
2023-05-02T19:57:30.146Z,74.05
2023-05-02T20:00:00.512Z,74.84
2023-05-02T20:02:30.603Z,76.21
2023-05-02T20:05:01.260Z,76.86
2023-05-02T20:07:31.167Z,76.72
2023-05-02T20:10:02.290Z,77.51
2023-05-02T20:12:32.658Z,78.03
2023-05-02T20:15:04.063Z,78.56
2023-05-02T20:17:34.200Z,78.33
2023-05-02T20:20:07.694Z,78.61
2023-05-02T20:22:39.296Z,80.14
2023-05-02T20:25:11.592Z,80.82
2023-05-02T20:27:42.217Z,81.09
2023-05-02T20:30:13.873Z,81.18
2023-05-02T20:32:45.082Z,81.80
2023-05-02T20:35:15.410Z,82.33
2023-05-02T20:37:46.278Z,82.79
2023-05-02T20:40:16.612Z,84.12
2023-05-02T20:42:46.779Z,84.53
2023-05-02T20:45:19.652Z,84.76
2023-05-02T20:47:49.947Z,84.90
2023-05-02T20:50:21.954Z,85.41
2023-05-02T20:52:51.795Z,85.95
2023-05-02T20:55:23.005Z,86.36
2023-05-02T20:57:53.744Z,86.68
2023-05-02T21:00:24.342Z,86.69
2023-05-02T21:02:54.618Z,87.54
2023-05-02T21:05:25.053Z,87.55
2023-05-02T21:07:55.200Z,88.09
2023-05-02T21:10:27.365Z,88.05
2023-05-02T21:12:56.066Z,89.29
2023-05-02T21:15:26.167Z,89.07
2023-05-02T21:18:03.625Z,89.98
2023-05-02T21:20:34.157Z,90.56
2023-05-02T21:23:04.267Z,90.50
2023-05-02T21:25:35.616Z,91.10
2023-05-02T21:28:06.943Z,91.90
2023-05-02T21:30:37.261Z,92.54
2023-05-02T21:33:07.834Z,93.03
2023-05-02T21:35:38.559Z,93.27
2023-05-02T21:38:09.280Z,93.57
2023-05-02T21:40:39.599Z,94.89
2023-05-02T21:43:09.924Z,94.43
2023-05-02T21:45:45.751Z,95.84
2023-05-02T21:48:17.126Z,95.77
2023-05-02T21:50:47.236Z,96.14
2023-05-02T21:53:17.975Z,96.30
2023-05-02T21:55:48.909Z,97.51
2023-05-02T21:58:19.232Z,97.48
2023-05-02T22:00:49.372Z,98.49
2023-05-02T22:03:20.110Z,98.81
2023-05-02T22:05:50.862Z,99.00
2023-05-02T22:08:21.969Z,99.52
2023-05-02T22:10:52.704Z,99.99
2023-05-02T22:13:23.549Z,100.00
2023-05-02T22:15:53.542Z,100.00
2023-05-02T22:18:23.668Z,100.00
2023-05-02T22:20:56.820Z,100.00
2023-05-02T22:23:27.371Z,100.00
2023-05-02T22:25:58.926Z,100.00
2023-05-02T22:28:29.457Z,100.00
2023-05-02T22:30:59.579Z,100.00
2023-05-02T22:33:30.510Z,100.00
2023-05-02T22:36:01.242Z,100.00
2023-05-02T22:38:31.977Z,100.00
2023-05-02T22:41:05.991Z,100.00
2023-05-02T22:43:36.925Z,100.00
2023-05-02T22:46:07.485Z,100.00
2023-05-02T22:48:38.185Z,100.00
2023-05-02T22:51:08.916Z,100.00
2023-05-02T22:53:40.096Z,100.00
2023-05-02T22:56:10.997Z,100.00
2023-05-02T22:58:41.122Z,100.00
2023-05-02T23:01:11.677Z,100.00
2023-05-02T23:03:43.595Z,100.00
2023-05-02T23:06:13.963Z,100.00
2023-05-02T23:08:45.068Z,100.00
2023-05-02T23:11:16.207Z,100.00
2023-05-02T23:13:46.936Z,100.00
2023-05-02T23:16:17.925Z,100.00
2023-05-02T23:18:49.423Z,100.00
2023-05-02T23:21:20.374Z,100.00
2023-05-02T23:23:50.682Z,100.00
2023-05-02T23:26:21.620Z,100.00
2023-05-02T23:28:52.152Z,100.00
2023-05-02T23:31:22.321Z,100.00
2023-05-02T23:33:53.618Z,100.00
2023-05-02T23:36:23.941Z,100.00
2023-05-02T23:38:54.667Z,100.00
2023-05-02T23:41:26.017Z,100.00
2023-05-02T23:43:56.546Z,100.00
2023-05-02T23:46:27.716Z,100.00
2023-05-02T23:48:58.622Z,100.00
2023-05-02T23:51:31.627Z,100.00
2023-05-02T23:54:02.146Z,100.00
2023-05-02T23:56:32.869Z,100.00
2023-05-02T23:59:03.595Z,100.00
